Logo Frankfurt-Egelsbach Airport
Hessische Flugplatz GmbH Egelsbach
Telefon : +49 (0)6103-9418-0
E-Mail : fly@egelsbach-airport.com
   

 

 

 

 

 

 

Aktuelle Daten

Öffnungszeiten: 0800 LT - SS+30 (max 2100 LT)

PPR: 0700 LT - 0800 LT, SS+30 - 2100 LT Tel +49 6103 9418-0

Beschränkung für NVFR-Anflüge mit HPA aufgehoben.

Behördlich vorgeschriebenes Briefing für NVFR-Anflüge mit HPA

» Behördlich vorgeschriebenes Briefing für NVFR-Anflüge mit HPA

Videos Streckenführung

 

Webcam

Webcam

Wetterdaten

Beobachtung von : 24-APR-2014 - 19:30 UTC
Sonnenaufgang : 04:14 UTC
Sonnenuntergang : 18:33 UTC
Sicht : ausgefallen
Wolkenuntergrenze : nicht feststellbar
Wind : 070 / 2 kt
Wind extrem (10 min) : 010-100 / 2-3 kt
Temperatur : 16.4° Celsius
Taupunkt : 6.3° Celsius
QNH : 1013.7 hPa
Dichtehöhe : 630 ft

Daten werden automatisch generiert. Verfügbarkeit und Richtigkeit ohne Gewähr.
Mit freundlicher Unterstützung des Deutschen Wetterdienstes

Metar

266
SADL31 EDFE 241850
METAR EDFE 241850Z 08002KT CAVOK 17/06 Q1013=


Notam

Zur Zeit liegen keine NOTAM Meldungen vor.